sensor_id;sensor_type;location;lat;lon;timestamp;pressure;altitude;pressure_sealevel;temperature;humidity
36798;BME280;22748;8.426;99.512;2023-02-15T00:01:07;100746.63;;;28.00;55.68
36798;BME280;22748;8.426;99.512;2023-02-15T00:03:40;100755.50;;;27.94;55.84
36798;BME280;22748;8.426;99.512;2023-02-15T00:06:13;100753.00;;;27.93;55.63
36798;BME280;22748;8.426;99.512;2023-02-15T00:08:46;100756.47;;;27.86;56.34
36798;BME280;22748;8.426;99.512;2023-02-15T00:11:17;100763.06;;;27.84;56.50
36798;BME280;22748;8.426;99.512;2023-02-15T00:14:08;100762.81;;;27.79;56.67
36798;BME280;22748;8.426;99.512;2023-02-15T00:16:39;100768.19;;;27.79;56.56
36798;BME280;22748;8.426;99.512;2023-02-15T00:19:26;100771.44;;;27.74;56.57
36798;BME280;22748;8.426;99.512;2023-02-15T00:21:58;100771.03;;;27.70;57.08
36798;BME280;22748;8.426;99.512;2023-02-15T00:24:27;100780.09;;;27.69;57.21
36798;BME280;22748;8.426;99.512;2023-02-15T00:26:59;100782.56;;;27.64;57.23
36798;BME280;22748;8.426;99.512;2023-02-15T00:29:30;100784.59;;;27.62;57.46
36798;BME280;22748;8.426;99.512;2023-02-15T00:31:59;100790.38;;;27.59;57.71
36798;BME280;22748;8.426;99.512;2023-02-15T00:34:30;100795.72;;;27.59;57.17
36798;BME280;22748;8.426;99.512;2023-02-15T00:36:59;100791.00;;;27.61;57.72
36798;BME280;22748;8.426;99.512;2023-02-15T00:39:31;100793.25;;;27.58;57.64
36798;BME280;22748;8.426;99.512;2023-02-15T00:42:02;100791.34;;;27.52;58.28
36798;BME280;22748;8.426;99.512;2023-02-15T00:44:31;100798.50;;;27.44;58.57
36798;BME280;22748;8.426;99.512;2023-02-15T00:47:04;100801.38;;;27.43;58.71
36798;BME280;22748;8.426;99.512;2023-02-15T00:49:39;100808.03;;;27.47;58.92
36798;BME280;22748;8.426;99.512;2023-02-15T00:52:08;100816.25;;;27.45;58.97
36798;BME280;22748;8.426;99.512;2023-02-15T00:54:39;100815.03;;;27.48;59.07
36798;BME280;22748;8.426;99.512;2023-02-15T00:57:11;100809.47;;;27.49;59.27
36798;BME280;22748;8.426;99.512;2023-02-15T00:59:42;100822.06;;;27.49;59.49
36798;BME280;22748;8.426;99.512;2023-02-15T01:02:13;100824.94;;;27.47;59.56
36798;BME280;22748;8.426;99.512;2023-02-15T01:04:46;100835.28;;;27.51;59.48
36798;BME280;22748;8.426;99.512;2023-02-15T01:07:20;100834.31;;;27.58;59.76
36798;BME280;22748;8.426;99.512;2023-02-15T01:09:51;100837.84;;;27.65;59.55
36798;BME280;22748;8.426;99.512;2023-02-15T01:12:25;100836.63;;;27.61;59.71
36798;BME280;22748;8.426;99.512;2023-02-15T01:14:55;100849.44;;;27.66;59.56
36798;BME280;22748;8.426;99.512;2023-02-15T01:17:25;100857.91;;;27.69;59.87
36798;BME280;22748;8.426;99.512;2023-02-15T01:19:57;100859.81;;;27.76;60.16
36798;BME280;22748;8.426;99.512;2023-02-15T01:22:29;100852.81;;;27.75;60.26
36798;BME280;22748;8.426;99.512;2023-02-15T01:24:59;100857.75;;;27.78;60.27
36798;BME280;22748;8.426;99.512;2023-02-15T01:27:30;100861.91;;;27.80;60.76
36798;BME280;22748;8.426;99.512;2023-02-15T01:30:01;100866.00;;;27.48;61.63
36798;BME280;22748;8.426;99.512;2023-02-15T01:32:32;100872.13;;;27.63;61.58
36798;BME280;22748;8.426;99.512;2023-02-15T01:35:07;100879.63;;;27.75;61.04
36798;BME280;22748;8.426;99.512;2023-02-15T01:37:38;100894.09;;;27.80;61.28
36798;BME280;22748;8.426;99.512;2023-02-15T01:40:11;100882.25;;;27.89;60.86
36798;BME280;22748;8.426;99.512;2023-02-15T01:42:43;100894.69;;;27.97;60.98
36798;BME280;22748;8.426;99.512;2023-02-15T01:45:22;100905.44;;;28.04;60.66
36798;BME280;22748;8.426;99.512;2023-02-15T01:47:59;100901.13;;;28.03;61.07
36798;BME280;22748;8.426;99.512;2023-02-15T01:50:40;100904.63;;;28.03;61.00
36798;BME280;22748;8.426;99.512;2023-02-15T01:53:15;100912.91;;;28.08;61.35
36798;BME280;22748;8.426;99.512;2023-02-15T01:55:52;100916.22;;;28.10;60.86
36798;BME280;22748;8.426;99.512;2023-02-15T01:58:26;100921.22;;;28.14;61.00
36798;BME280;22748;8.426;99.512;2023-02-15T02:00:59;100920.00;;;28.16;61.31
36798;BME280;22748;8.426;99.512;2023-02-15T02:03:36;100924.59;;;28.22;60.65
36798;BME280;22748;8.426;99.512;2023-02-15T02:06:10;100928.72;;;28.25;60.74
36798;BME280;22748;8.426;99.512;2023-02-15T02:08:42;100916.13;;;28.25;60.84
36798;BME280;22748;8.426;99.512;2023-02-15T02:11:14;100922.94;;;28.28;60.32
36798;BME280;22748;8.426;99.512;2023-02-15T02:13:46;100926.28;;;28.30;60.74
36798;BME280;22748;8.426;99.512;2023-02-15T02:16:20;100937.00;;;28.30;60.71
36798;BME280;22748;8.426;99.512;2023-02-15T02:19:10;100936.63;;;28.33;60.22
36798;BME280;22748;8.426;99.512;2023-02-15T02:22:11;100944.13;;;28.44;60.56
36798;BME280;22748;8.426;99.512;2023-02-15T02:25:08;100945.44;;;28.48;60.36
36798;BME280;22748;8.426;99.512;2023-02-15T02:27:47;100945.66;;;28.54;59.90
36798;BME280;22748;8.426;99.512;2023-02-15T02:33:48;100954.19;;;28.64;60.18
36798;BME280;22748;8.426;99.512;2023-02-15T02:36:26;100954.41;;;28.69;59.77
36798;BME280;22748;8.426;99.512;2023-02-15T02:39:09;100955.47;;;28.75;59.59
36798;BME280;22748;8.426;99.512;2023-02-15T02:41:58;100957.56;;;28.79;59.42
36798;BME280;22748;8.426;99.512;2023-02-15T02:44:40;100954.25;;;28.84;59.11
36798;BME280;22748;8.426;99.512;2023-02-15T02:47:16;100953.66;;;28.88;59.30
36798;BME280;22748;8.426;99.512;2023-02-15T02:49:58;100946.84;;;28.92;59.27
36798;BME280;22748;8.426;99.512;2023-02-15T02:52:41;100948.94;;;28.97;59.27
36798;BME280;22748;8.426;99.512;2023-02-15T02:55:15;100955.56;;;29.01;59.18
36798;BME280;22748;8.426;99.512;2023-02-15T02:57:52;100947.31;;;29.03;58.56
36798;BME280;22748;8.426;99.512;2023-02-15T03:00:25;100952.25;;;29.06;58.50
36798;BME280;22748;8.426;99.512;2023-02-15T03:03:02;100955.41;;;29.09;58.96
36798;BME280;22748;8.426;99.512;2023-02-15T03:05:43;100954.56;;;29.09;58.95
36798;BME280;22748;8.426;99.512;2023-02-15T03:08:17;100948.16;;;29.10;58.30
36798;BME280;22748;8.426;99.512;2023-02-15T03:10:52;100946.50;;;29.16;58.28
36798;BME280;22748;8.426;99.512;2023-02-15T03:13:24;100948.63;;;29.20;58.32
36798;BME280;22748;8.426;99.512;2023-02-15T03:15:59;100950.47;;;29.20;58.22
36798;BME280;22748;8.426;99.512;2023-02-15T03:18:44;100956.47;;;29.28;57.93
36798;BME280;22748;8.426;99.512;2023-02-15T03:21:27;100950.28;;;29.35;57.86
36798;BME280;22748;8.426;99.512;2023-02-15T03:24:03;100958.53;;;29.26;58.30
36798;BME280;22748;8.426;99.512;2023-02-15T03:26:35;100944.50;;;29.38;57.92
36798;BME280;22748;8.426;99.512;2023-02-15T03:29:06;100941.59;;;29.46;57.53
36798;BME280;22748;8.426;99.512;2023-02-15T03:31:40;100933.75;;;29.51;57.52
36798;BME280;22748;8.426;99.512;2023-02-15T03:34:14;100924.44;;;29.60;57.36
36798;BME280;22748;8.426;99.512;2023-02-15T03:36:52;100924.25;;;29.62;57.10
36798;BME280;22748;8.426;99.512;2023-02-15T03:39:29;100905.59;;;29.67;57.34
36798;BME280;22748;8.426;99.512;2023-02-15T03:42:08;100906.06;;;29.70;56.49
36798;BME280;22748;8.426;99.512;2023-02-15T03:44:53;100895.47;;;29.89;56.22
36798;BME280;22748;8.426;99.512;2023-02-15T03:47:27;100892.53;;;30.04;56.19
36798;BME280;22748;8.426;99.512;2023-02-15T03:50:10;100892.69;;;30.15;55.12
36798;BME280;22748;8.426;99.512;2023-02-15T03:52:58;100891.25;;;30.20;54.84
36798;BME280;22748;8.426;99.512;2023-02-15T03:55:30;100884.84;;;30.21;54.31
36798;BME280;22748;8.426;99.512;2023-02-15T03:57:59;100882.13;;;30.21;53.44
36798;BME280;22748;8.426;99.512;2023-02-15T04:00:44;100877.75;;;30.26;53.72
36798;BME280;22748;8.426;99.512;2023-02-15T04:03:35;100874.69;;;30.29;53.77
36798;BME280;22748;8.426;99.512;2023-02-15T04:06:08;100868.84;;;30.26;53.97
36798;BME280;22748;8.426;99.512;2023-02-15T04:08:41;100863.91;;;30.23;53.14
36798;BME280;22748;8.426;99.512;2023-02-15T04:11:23;100856.44;;;30.31;53.09
36798;BME280;22748;8.426;99.512;2023-02-15T04:13:53;100843.34;;;30.35;53.33
36798;BME280;22748;8.426;99.512;2023-02-15T04:16:23;100840.84;;;30.40;52.73
36798;BME280;22748;8.426;99.512;2023-02-15T04:18:52;100843.72;;;30.45;52.10
36798;BME280;22748;8.426;99.512;2023-02-15T04:21:34;100835.00;;;30.50;51.24
36798;BME280;22748;8.426;99.512;2023-02-15T04:24:18;100832.09;;;30.51;51.19
36798;BME280;22748;8.426;99.512;2023-02-15T04:27:00;100833.38;;;30.42;51.09
36798;BME280;22748;8.426;99.512;2023-02-15T04:29:30;100829.00;;;30.48;50.73
36798;BME280;22748;8.426;99.512;2023-02-15T04:32:01;100821.06;;;30.53;51.31
36798;BME280;22748;8.426;99.512;2023-02-15T04:34:31;100815.91;;;30.51;51.16
36798;BME280;22748;8.426;99.512;2023-02-15T04:37:00;100808.44;;;30.53;50.57
36798;BME280;22748;8.426;99.512;2023-02-15T04:39:35;100799.66;;;30.65;51.17
36798;BME280;22748;8.426;99.512;2023-02-15T04:42:04;100807.88;;;30.76;50.99
36798;BME280;22748;8.426;99.512;2023-02-15T04:44:33;100797.03;;;30.83;50.03
36798;BME280;22748;8.426;99.512;2023-02-15T04:47:03;100785.06;;;30.86;50.21
36798;BME280;22748;8.426;99.512;2023-02-15T04:49:32;100781.09;;;30.88;50.33
36798;BME280;22748;8.426;99.512;2023-02-15T04:52:03;100779.97;;;30.96;50.85
36798;BME280;22748;8.426;99.512;2023-02-15T04:54:35;100771.22;;;31.01;49.46
36798;BME280;22748;8.426;99.512;2023-02-15T04:57:05;100762.91;;;31.02;49.63
36798;BME280;22748;8.426;99.512;2023-02-15T04:59:39;100761.03;;;31.03;49.30
36798;BME280;22748;8.426;99.512;2023-02-15T05:02:10;100760.75;;;31.11;49.18
36798;BME280;22748;8.426;99.512;2023-02-15T05:04:44;100754.03;;;31.20;49.54
36798;BME280;22748;8.426;99.512;2023-02-15T05:07:16;100744.03;;;31.27;48.77
36798;BME280;22748;8.426;99.512;2023-02-15T05:09:54;100741.47;;;31.32;48.53
36798;BME280;22748;8.426;99.512;2023-02-15T05:12:27;100749.13;;;31.35;48.78
36798;BME280;22748;8.426;99.512;2023-02-15T05:15:02;100739.38;;;31.34;48.36
36798;BME280;22748;8.426;99.512;2023-02-15T05:17:32;100736.81;;;31.40;47.75
36798;BME280;22748;8.426;99.512;2023-02-15T05:20:02;100733.72;;;31.43;47.88
36798;BME280;22748;8.426;99.512;2023-02-15T05:22:32;100731.63;;;31.45;48.02
36798;BME280;22748;8.426;99.512;2023-02-15T05:25:07;100724.56;;;31.44;48.73
36798;BME280;22748;8.426;99.512;2023-02-15T05:27:49;100714.84;;;31.43;48.20
36798;BME280;22748;8.426;99.512;2023-02-15T05:30:32;100711.94;;;31.37;47.02
36798;BME280;22748;8.426;99.512;2023-02-15T05:33:01;100719.56;;;31.47;47.09
36798;BME280;22748;8.426;99.512;2023-02-15T05:35:55;100709.78;;;31.46;47.31
36798;BME280;22748;8.426;99.512;2023-02-15T05:38:47;100698.91;;;31.53;47.09
36798;BME280;22748;8.426;99.512;2023-02-15T05:41:42;100699.22;;;31.63;47.74
36798;BME280;22748;8.426;99.512;2023-02-15T05:44:34;100693.75;;;31.70;47.23
36798;BME280;22748;8.426;99.512;2023-02-15T05:47:04;100684.59;;;31.71;46.77
36798;BME280;22748;8.426;99.512;2023-02-15T05:49:35;100685.03;;;31.68;46.97
36798;BME280;22748;8.426;99.512;2023-02-15T05:52:09;100669.22;;;31.71;47.23
36798;BME280;22748;8.426;99.512;2023-02-15T05:54:41;100663.00;;;31.71;47.16
36798;BME280;22748;8.426;99.512;2023-02-15T05:57:12;100671.47;;;31.74;47.39
36798;BME280;22748;8.426;99.512;2023-02-15T05:59:44;100661.13;;;31.71;47.54
36798;BME280;22748;8.426;99.512;2023-02-15T06:05:39;100650.75;;;31.87;47.83
36798;BME280;22748;8.426;99.512;2023-02-15T06:08:11;100647.72;;;31.95;46.56
36798;BME280;22748;8.426;99.512;2023-02-15T06:11:11;100657.78;;;31.88;46.04
36798;BME280;22748;8.426;99.512;2023-02-15T06:13:43;100647.13;;;31.93;45.81
36798;BME280;22748;8.426;99.512;2023-02-15T06:16:14;100649.84;;;31.93;45.87
36798;BME280;22748;8.426;99.512;2023-02-15T06:18:45;100646.97;;;31.88;46.09
36798;BME280;22748;8.426;99.512;2023-02-15T06:21:15;100654.03;;;31.89;46.06
36798;BME280;22748;8.426;99.512;2023-02-15T06:23:44;100643.97;;;31.96;45.86
36798;BME280;22748;8.426;99.512;2023-02-15T06:26:14;100647.28;;;31.98;45.64
36798;BME280;22748;8.426;99.512;2023-02-15T06:28:45;100643.53;;;31.99;45.11
36798;BME280;22748;8.426;99.512;2023-02-15T06:31:16;100631.06;;;31.98;45.17
36798;BME280;22748;8.426;99.512;2023-02-15T06:33:46;100628.97;;;32.00;45.43
36798;BME280;22748;8.426;99.512;2023-02-15T06:36:16;100618.16;;;32.00;45.20
36798;BME280;22748;8.426;99.512;2023-02-15T06:38:47;100624.28;;;32.07;45.64
36798;BME280;22748;8.426;99.512;2023-02-15T06:41:16;100611.38;;;32.09;45.65
36798;BME280;22748;8.426;99.512;2023-02-15T06:43:47;100619.84;;;32.13;45.60
36798;BME280;22748;8.426;99.512;2023-02-15T06:46:17;100609.16;;;32.18;45.01
36798;BME280;22748;8.426;99.512;2023-02-15T06:48:47;100605.53;;;32.24;45.36
36798;BME280;22748;8.426;99.512;2023-02-15T06:51:16;100593.69;;;32.25;45.02
36798;BME280;22748;8.426;99.512;2023-02-15T06:53:46;100601.19;;;32.23;45.15
36798;BME280;22748;8.426;99.512;2023-02-15T06:56:15;100596.72;;;32.29;45.21
36798;BME280;22748;8.426;99.512;2023-02-15T06:58:46;100584.50;;;32.26;44.65
36798;BME280;22748;8.426;99.512;2023-02-15T07:01:16;100580.50;;;32.29;44.72
36798;BME280;22748;8.426;99.512;2023-02-15T07:03:47;100581.47;;;32.34;44.75
36798;BME280;22748;8.426;99.512;2023-02-15T07:06:16;100583.34;;;32.34;44.93
36798;BME280;22748;8.426;99.512;2023-02-15T07:08:49;100574.19;;;32.35;44.93
36798;BME280;22748;8.426;99.512;2023-02-15T07:11:19;100575.47;;;32.32;44.17
36798;BME280;22748;8.426;99.512;2023-02-15T07:14:05;100572.88;;;32.26;44.03
36798;BME280;22748;8.426;99.512;2023-02-15T07:16:36;100571.94;;;32.32;43.77
36798;BME280;22748;8.426;99.512;2023-02-15T07:19:06;100562.31;;;32.36;43.70
36798;BME280;22748;8.426;99.512;2023-02-15T07:21:36;100556.31;;;32.46;43.43
36798;BME280;22748;8.426;99.512;2023-02-15T07:24:06;100551.28;;;32.49;43.57
36798;BME280;22748;8.426;99.512;2023-02-15T07:26:36;100543.88;;;32.45;43.24
36798;BME280;22748;8.426;99.512;2023-02-15T07:29:11;100545.16;;;32.42;43.39
36798;BME280;22748;8.426;99.512;2023-02-15T07:31:43;100539.53;;;32.55;43.10
36798;BME280;22748;8.426;99.512;2023-02-15T07:34:13;100534.72;;;32.69;43.14
36798;BME280;22748;8.426;99.512;2023-02-15T07:36:43;100536.13;;;32.72;43.19
36798;BME280;22748;8.426;99.512;2023-02-15T07:39:12;100520.13;;;32.70;43.36
36798;BME280;22748;8.426;99.512;2023-02-15T07:41:42;100530.13;;;32.70;43.30
36798;BME280;22748;8.426;99.512;2023-02-15T07:44:15;100522.72;;;32.65;43.19
36798;BME280;22748;8.426;99.512;2023-02-15T07:46:45;100525.19;;;32.67;42.93
36798;BME280;22748;8.426;99.512;2023-02-15T07:49:15;100524.13;;;32.68;42.85
36798;BME280;22748;8.426;99.512;2023-02-15T07:51:45;100521.91;;;32.65;42.98
36798;BME280;22748;8.426;99.512;2023-02-15T07:54:16;100515.56;;;32.71;43.09
36798;BME280;22748;8.426;99.512;2023-02-15T07:56:45;100515.88;;;32.74;42.90
36798;BME280;22748;8.426;99.512;2023-02-15T07:59:18;100512.47;;;32.79;43.16
36798;BME280;22748;8.426;99.512;2023-02-15T08:02:01;100509.03;;;32.84;42.96
36798;BME280;22748;8.426;99.512;2023-02-15T08:04:31;100503.63;;;32.84;43.21
36798;BME280;22748;8.426;99.512;2023-02-15T08:07:00;100498.34;;;32.77;43.08
36798;BME280;22748;8.426;99.512;2023-02-15T08:09:31;100512.72;;;32.77;43.11
36798;BME280;22748;8.426;99.512;2023-02-15T08:12:02;100505.88;;;32.75;42.76
36798;BME280;22748;8.426;99.512;2023-02-15T08:14:35;100509.06;;;32.72;42.37
36798;BME280;22748;8.426;99.512;2023-02-15T08:17:05;100505.41;;;32.78;42.36
36798;BME280;22748;8.426;99.512;2023-02-15T08:19:35;100504.84;;;32.76;42.65
36798;BME280;22748;8.426;99.512;2023-02-15T08:22:10;100500.47;;;32.75;42.98
36798;BME280;22748;8.426;99.512;2023-02-15T08:24:41;100503.63;;;32.84;42.91
36798;BME280;22748;8.426;99.512;2023-02-15T08:27:12;100505.16;;;32.91;43.21
36798;BME280;22748;8.426;99.512;2023-02-15T08:29:50;100510.91;;;32.95;42.51
36798;BME280;22748;8.426;99.512;2023-02-15T08:32:21;100495.13;;;32.92;42.60
36798;BME280;22748;8.426;99.512;2023-02-15T08:34:51;100496.81;;;32.93;42.56
36798;BME280;22748;8.426;99.512;2023-02-15T08:37:21;100505.81;;;32.98;41.76
36798;BME280;22748;8.426;99.512;2023-02-15T08:39:52;100505.72;;;32.93;41.53
36798;BME280;22748;8.426;99.512;2023-02-15T08:42:22;100495.38;;;32.90;41.72
36798;BME280;22748;8.426;99.512;2023-02-15T08:44:54;100497.03;;;32.91;41.58
36798;BME280;22748;8.426;99.512;2023-02-15T08:47:25;100491.28;;;32.88;41.59
36798;BME280;22748;8.426;99.512;2023-02-15T08:49:55;100498.06;;;32.90;42.06
36798;BME280;22748;8.426;99.512;2023-02-15T08:52:26;100493.25;;;32.92;41.90
36798;BME280;22748;8.426;99.512;2023-02-15T08:54:56;100491.47;;;32.98;41.98
36798;BME280;22748;8.426;99.512;2023-02-15T08:57:31;100490.66;;;32.97;41.38
36798;BME280;22748;8.426;99.512;2023-02-15T09:00:05;100500.75;;;33.02;41.63
36798;BME280;22748;8.426;99.512;2023-02-15T09:02:36;100498.78;;;32.97;41.61
36798;BME280;22748;8.426;99.512;2023-02-15T09:05:07;100507.63;;;32.93;41.67
36798;BME280;22748;8.426;99.512;2023-02-15T09:07:35;100503.53;;;32.78;42.09
36798;BME280;22748;8.426;99.512;2023-02-15T09:10:08;100511.41;;;32.80;42.27
36798;BME280;22748;8.426;99.512;2023-02-15T09:12:40;100513.03;;;32.81;42.17
36798;BME280;22748;8.426;99.512;2023-02-15T09:15:10;100516.00;;;32.79;42.08
36798;BME280;22748;8.426;99.512;2023-02-15T09:17:41;100509.97;;;32.89;42.19
36798;BME280;22748;8.426;99.512;2023-02-15T09:20:11;100514.81;;;32.87;42.11
36798;BME280;22748;8.426;99.512;2023-02-15T09:22:41;100514.81;;;32.87;42.24
36798;BME280;22748;8.426;99.512;2023-02-15T09:25:10;100508.13;;;32.78;42.39
36798;BME280;22748;8.426;99.512;2023-02-15T09:27:40;100514.25;;;32.73;42.49
36798;BME280;22748;8.426;99.512;2023-02-15T09:30:12;100513.41;;;32.73;42.28
36798;BME280;22748;8.426;99.512;2023-02-15T09:32:44;100511.28;;;32.75;42.41
36798;BME280;22748;8.426;99.512;2023-02-15T09:35:17;100518.72;;;32.79;42.51
36798;BME280;22748;8.426;99.512;2023-02-15T09:37:47;100518.72;;;32.79;42.38
36798;BME280;22748;8.426;99.512;2023-02-15T09:40:17;100519.53;;;32.80;42.52
36798;BME280;22748;8.426;99.512;2023-02-15T09:42:50;100525.75;;;32.81;42.47
36798;BME280;22748;8.426;99.512;2023-02-15T09:45:36;100521.66;;;32.78;42.40
36798;BME280;22748;8.426;99.512;2023-02-15T09:48:34;100520.47;;;32.74;42.44
36798;BME280;22748;8.426;99.512;2023-02-15T09:51:23;100526.34;;;32.83;42.45
36798;BME280;22748;8.426;99.512;2023-02-15T09:54:10;100530.22;;;32.87;42.35
36798;BME280;22748;8.426;99.512;2023-02-15T09:56:49;100525.25;;;32.84;42.15
36798;BME280;22748;8.426;99.512;2023-02-15T09:59:43;100530.09;;;32.82;42.57
36798;BME280;22748;8.426;99.512;2023-02-15T10:02:27;100542.34;;;32.84;42.71
36798;BME280;22748;8.426;99.512;2023-02-15T10:05:12;100542.34;;;32.84;42.63
36798;BME280;22748;8.426;99.512;2023-02-15T10:08:00;100548.19;;;32.81;42.78
36798;BME280;22748;8.426;99.512;2023-02-15T10:10:42;100550.81;;;32.76;41.81
36798;BME280;22748;8.426;99.512;2023-02-15T10:13:29;100555.53;;;32.69;41.69
36798;BME280;22748;8.426;99.512;2023-02-15T10:16:14;100545.53;;;32.69;41.91
36798;BME280;22748;8.426;99.512;2023-02-15T10:18:55;100550.72;;;32.71;41.96
36798;BME280;22748;8.426;99.512;2023-02-15T10:21:39;100561.03;;;32.74;42.05
36798;BME280;22748;8.426;99.512;2023-02-15T10:24:35;100558.81;;;32.71;41.96
36798;BME280;22748;8.426;99.512;2023-02-15T10:27:12;100569.97;;;32.74;42.42
36798;BME280;22748;8.426;99.512;2023-02-15T10:29:50;100567.97;;;32.70;42.45
36798;BME280;22748;8.426;99.512;2023-02-15T10:32:32;100572.22;;;32.66;42.59
36798;BME280;22748;8.426;99.512;2023-02-15T10:35:15;100569.72;;;32.64;42.65
36798;BME280;22748;8.426;99.512;2023-02-15T10:37:58;100570.78;;;32.51;42.74
36798;BME280;22748;8.426;99.512;2023-02-15T10:40:36;100569.94;;;32.51;43.05
36798;BME280;22748;8.426;99.512;2023-02-15T10:43:33;100577.00;;;32.52;43.54
36798;BME280;22748;8.426;99.512;2023-02-15T10:46:14;100585.47;;;32.55;43.42
36798;BME280;22748;8.426;99.512;2023-02-15T10:49:11;100578.31;;;32.49;43.80
36798;BME280;22748;8.426;99.512;2023-02-15T10:51:56;100591.22;;;32.47;43.38
36798;BME280;22748;8.426;99.512;2023-02-15T10:54:35;100595.75;;;32.53;43.26
36798;BME280;22748;8.426;99.512;2023-02-15T10:57:15;100599.94;;;32.49;43.34
36798;BME280;22748;8.426;99.512;2023-02-15T10:59:59;100599.94;;;32.49;43.32
36798;BME280;22748;8.426;99.512;2023-02-15T11:02:47;100606.31;;;32.55;43.30
36798;BME280;22748;8.426;99.512;2023-02-15T11:05:37;100606.06;;;32.56;43.73
36798;BME280;22748;8.426;99.512;2023-02-15T11:08:14;100601.16;;;32.53;43.67
36798;BME280;22748;8.426;99.512;2023-02-15T11:10:58;100611.19;;;32.46;43.19
36798;BME280;22748;8.426;99.512;2023-02-15T11:13:34;100606.13;;;32.38;43.49
36798;BME280;22748;8.426;99.512;2023-02-15T11:16:13;100619.19;;;32.41;43.56
36798;BME280;22748;8.426;99.512;2023-02-15T11:18:47;100612.28;;;32.45;43.57
36798;BME280;22748;8.426;99.512;2023-02-15T11:21:24;100614.00;;;32.39;43.76
36798;BME280;22748;8.426;99.512;2023-02-15T11:23:58;100621.78;;;32.36;43.00
36798;BME280;22748;8.426;99.512;2023-02-15T11:26:34;100626.13;;;32.37;43.46
36798;BME280;22748;8.426;99.512;2023-02-15T11:29:12;100627.38;;;32.23;43.59
36798;BME280;22748;8.426;99.512;2023-02-15T11:31:44;100628.56;;;32.27;43.69
36798;BME280;22748;8.426;99.512;2023-02-15T11:34:23;100631.03;;;32.28;43.68
36798;BME280;22748;8.426;99.512;2023-02-15T11:36:58;100629.47;;;32.21;43.82
36798;BME280;22748;8.426;99.512;2023-02-15T11:39:33;100628.81;;;32.25;43.98
36798;BME280;22748;8.426;99.512;2023-02-15T11:42:11;100629.41;;;32.27;43.60
36798;BME280;22748;8.426;99.512;2023-02-15T11:44:47;100633.53;;;32.30;43.63
36798;BME280;22748;8.426;99.512;2023-02-15T11:47:18;100636.81;;;32.32;43.81
36798;BME280;22748;8.426;99.512;2023-02-15T11:49:49;100633.03;;;32.33;44.15
36798;BME280;22748;8.426;99.512;2023-02-15T11:52:19;100637.84;;;32.31;44.38
36798;BME280;22748;8.426;99.512;2023-02-15T11:54:53;100647.25;;;32.28;44.26
36798;BME280;22748;8.426;99.512;2023-02-15T11:57:26;100647.25;;;32.28;44.36
36798;BME280;22748;8.426;99.512;2023-02-15T12:00:03;100653.47;;;32.29;44.82
36798;BME280;22748;8.426;99.512;2023-02-15T12:02:37;100664.06;;;32.30;44.87
36798;BME280;22748;8.426;99.512;2023-02-15T12:05:13;100655.13;;;32.30;44.79
36798;BME280;22748;8.426;99.512;2023-02-15T12:07:48;100668.66;;;32.30;44.82
36798;BME280;22748;8.426;99.512;2023-02-15T12:10:26;100673.47;;;32.28;45.07
36798;BME280;22748;8.426;99.512;2023-02-15T12:13:11;100670.59;;;32.23;45.65
36798;BME280;22748;8.426;99.512;2023-02-15T12:15:44;100666.28;;;32.22;45.64
36798;BME280;22748;8.426;99.512;2023-02-15T12:18:21;100668.94;;;32.10;45.76
36798;BME280;22748;8.426;99.512;2023-02-15T12:20:59;100672.47;;;32.10;45.80
36798;BME280;22748;8.426;99.512;2023-02-15T12:23:32;100684.47;;;32.14;45.53
36798;BME280;22748;8.426;99.512;2023-02-15T12:26:05;100682.00;;;32.13;45.94
36798;BME280;22748;8.426;99.512;2023-02-15T12:28:37;100682.31;;;32.05;46.01
36798;BME280;22748;8.426;99.512;2023-02-15T12:31:21;100684.06;;;31.99;45.97
36798;BME280;22748;8.426;99.512;2023-02-15T12:33:53;100685.09;;;31.98;46.09
36798;BME280;22748;8.426;99.512;2023-02-15T12:36:27;100689.22;;;32.01;46.46
36798;BME280;22748;8.426;99.512;2023-02-15T12:39:15;100695.91;;;31.98;46.58
36798;BME280;22748;8.426;99.512;2023-02-15T12:42:00;100702.56;;;31.95;46.89
36798;BME280;22748;8.426;99.512;2023-02-15T12:44:33;100708.19;;;31.94;46.82
36798;BME280;22748;8.426;99.512;2023-02-15T12:47:09;100707.16;;;31.95;46.55
36798;BME280;22748;8.426;99.512;2023-02-15T12:50:07;100717.56;;;31.91;46.70
36798;BME280;22748;8.426;99.512;2023-02-15T12:52:45;100710.75;;;31.89;46.92
36798;BME280;22748;8.426;99.512;2023-02-15T12:55:26;100728.00;;;31.88;47.11
36798;BME280;22748;8.426;99.512;2023-02-15T12:58:16;100727.56;;;31.91;46.55
36798;BME280;22748;8.426;99.512;2023-02-15T13:00:47;100735.38;;;31.99;46.59
36798;BME280;22748;8.426;99.512;2023-02-15T13:03:18;100729.53;;;32.02;46.78
36798;BME280;22748;8.426;99.512;2023-02-15T13:05:53;100732.81;;;32.04;47.02
36798;BME280;22748;8.426;99.512;2023-02-15T13:08:31;100734.44;;;32.05;46.85
36798;BME280;22748;8.426;99.512;2023-02-15T13:11:05;100738.59;;;32.08;46.78
36798;BME280;22748;8.426;99.512;2023-02-15T13:13:50;100734.84;;;32.09;46.50
36798;BME280;22748;8.426;99.512;2023-02-15T13:16:27;100735.66;;;32.09;46.87
36798;BME280;22748;8.426;99.512;2023-02-15T13:19:04;100737.31;;;32.10;46.78
36798;BME280;22748;8.426;99.512;2023-02-15T13:21:37;100747.31;;;32.10;46.53
36798;BME280;22748;8.426;99.512;2023-02-15T13:24:17;100751.84;;;32.09;46.56
36798;BME280;22748;8.426;99.512;2023-02-15T13:26:49;100758.94;;;32.10;46.67
36798;BME280;22748;8.426;99.512;2023-02-15T13:29:24;100755.41;;;32.10;46.34
36798;BME280;22748;8.426;99.512;2023-02-15T13:31:57;100756.22;;;32.10;46.63
36798;BME280;22748;8.426;99.512;2023-02-15T13:34:28;100767.03;;;32.10;46.35
36798;BME280;22748;8.426;99.512;2023-02-15T13:37:08;100763.94;;;32.07;46.72
36798;BME280;22748;8.426;99.512;2023-02-15T13:39:45;100772.75;;;32.02;47.07